createdAt,value
2023-11-25T00:00:00.334Z,987
2023-11-25T00:01:30.840Z,987.1
2023-11-25T00:03:01.361Z,987.1
2023-11-25T00:04:31.883Z,987.2
2023-11-25T00:05:47.003Z,987.1
2023-11-25T00:07:02.131Z,987.2
2023-11-25T00:08:32.645Z,987.2
2023-11-25T00:10:03.169Z,987.2
2023-11-25T00:11:33.673Z,987.2
2023-11-25T00:13:04.189Z,987.2
2023-11-25T00:14:34.707Z,987.2
2023-11-25T00:17:35.730Z,987.3
2023-11-25T00:19:06.239Z,987.3
2023-11-25T00:21:51.874Z,987.4
2023-11-25T00:23:07.006Z,987.5
2023-11-25T00:24:37.533Z,987.5
2023-11-25T00:26:08.028Z,987.5
2023-11-25T00:27:38.549Z,987.5
2023-11-25T00:29:09.063Z,987.6
2023-11-25T00:30:39.583Z,987.6
2023-11-25T00:32:10.078Z,987.7
2023-11-25T00:33:40.604Z,987.8
2023-11-25T00:35:11.115Z,987.8
2023-11-25T00:36:41.633Z,987.9
2023-11-25T00:37:56.786Z,988
2023-11-25T00:39:11.879Z,987.9
2023-11-25T00:40:42.398Z,987.9
2023-11-25T00:42:12.905Z,988
2023-11-25T00:43:43.430Z,988
2023-11-25T00:45:13.945Z,988
2023-11-25T00:46:44.462Z,988.2
2023-11-25T00:48:14.957Z,988.2
2023-11-25T00:49:45.466Z,988.3
2023-11-25T00:51:15.988Z,988.4
2023-11-25T00:52:46.499Z,988.4
2023-11-25T00:56:47.269Z,988.5
2023-11-25T00:58:17.778Z,988.5
2023-11-25T01:01:18.813Z,988.6
2023-11-25T01:02:49.330Z,988.7
2023-11-25T01:05:50.358Z,988.8
2023-11-25T01:07:20.853Z,988.8
2023-11-25T01:08:51.372Z,988.8
2023-11-25T01:10:06.511Z,988.9
2023-11-25T01:11:21.629Z,988.9
2023-11-25T01:12:52.143Z,988.9
2023-11-25T01:15:53.174Z,989
2023-11-25T01:17:23.678Z,989
2023-11-25T01:20:24.706Z,989.1
2023-11-25T01:21:55.219Z,989.1
2023-11-25T01:23:25.744Z,989.1
2023-11-25T01:24:56.255Z,989.1
2023-11-25T01:26:10.946Z,989.1
2023-11-25T01:27:26.077Z,989.2
2023-11-25T01:28:56.663Z,989.1
2023-11-25T01:32:05.795Z,989.2
2023-11-25T01:35:06.832Z,989.2
2023-11-25T01:36:37.347Z,989.3
2023-11-25T01:39:38.376Z,989.3
2023-11-25T01:41:08.877Z,989.3
2023-11-25T01:42:24.006Z,989.4
2023-11-25T01:43:39.123Z,989.3
2023-11-25T01:45:09.649Z,989.4
2023-11-25T01:46:40.149Z,989.4
2023-11-25T01:48:10.667Z,989.4
2023-11-25T01:49:41.177Z,989.4
2023-11-25T01:51:11.697Z,989.5
2023-11-25T01:52:42.215Z,989.4
2023-11-25T01:54:12.724Z,989.5
2023-11-25T01:55:43.236Z,989.5
2023-11-25T01:57:13.755Z,989.5
2023-11-25T01:58:28.871Z,989.5
2023-11-25T01:59:44.011Z,989.5
2023-11-25T02:02:45.042Z,989.5
2023-11-25T02:04:15.555Z,989.5
2023-11-25T02:05:46.065Z,989.5
2023-11-25T02:08:47.089Z,989.5
2023-11-25T02:10:17.606Z,989.5
2023-11-25T02:11:48.108Z,989.5
2023-11-25T02:14:33.768Z,989.5
2023-11-25T02:15:48.878Z,989.5
2023-11-25T02:18:49.914Z,989.6
2023-11-25T02:20:20.417Z,989.7
2023-11-25T02:23:21.450Z,989.7
2023-11-25T02:26:22.469Z,989.7
2023-11-25T02:27:52.978Z,989.7
2023-11-25T02:29:23.494Z,989.7
2023-11-25T02:33:23.843Z,989.8
2023-11-25T02:34:54.339Z,989.9
2023-11-25T02:36:24.849Z,989.9
2023-11-25T02:37:55.382Z,989.9
2023-11-25T02:39:25.878Z,990
2023-11-25T02:42:26.914Z,990.1
2023-11-25T02:43:57.425Z,990
2023-11-25T02:45:27.935Z,990.1
2023-11-25T02:46:43.075Z,990
2023-11-25T02:47:58.192Z,990
2023-11-25T02:52:29.729Z,990
2023-11-25T02:54:00.262Z,990.1
2023-11-25T02:55:30.763Z,990
2023-11-25T02:57:01.283Z,990.1
2023-11-25T02:58:31.787Z,990.1
2023-11-25T03:01:32.821Z,990.2
2023-11-25T03:02:47.954Z,990.3
2023-11-25T03:04:03.070Z,990.3
2023-11-25T03:05:33.592Z,990.2
2023-11-25T03:07:04.086Z,990.3
2023-11-25T03:10:05.129Z,990.4
2023-11-25T03:13:06.159Z,990.4
2023-11-25T03:14:36.658Z,990.4
2023-11-25T03:16:07.173Z,990.5
2023-11-25T03:17:37.701Z,990.5
2023-11-25T03:18:52.806Z,990.5
2023-11-25T03:21:38.463Z,990.6
2023-11-25T03:23:08.972Z,990.6
2023-11-25T03:24:39.504Z,990.6
2023-11-25T03:26:10.004Z,990.6
2023-11-25T03:27:40.508Z,990.6
2023-11-25T03:29:11.028Z,990.6
2023-11-25T03:30:41.532Z,990.6
2023-11-25T03:32:12.048Z,990.6
2023-11-25T03:34:57.691Z,990.7
2023-11-25T03:36:12.816Z,990.7
2023-11-25T03:37:43.338Z,990.7
2023-11-25T03:40:44.358Z,990.7
2023-11-25T03:42:14.875Z,990.7
2023-11-25T03:43:45.386Z,990.8
2023-11-25T03:45:15.895Z,990.8
2023-11-25T03:46:46.414Z,990.8
2023-11-25T03:49:47.445Z,990.9
2023-11-25T03:51:02.568Z,990.9
2023-11-25T03:52:17.246Z,990.9
2023-11-25T03:55:18.274Z,991
2023-11-25T03:56:48.793Z,991
2023-11-25T03:58:19.321Z,991
2023-11-25T03:59:49.823Z,991
2023-11-25T04:01:20.336Z,991
2023-11-25T04:04:21.356Z,991
2023-11-25T04:05:51.876Z,991.1
2023-11-25T04:07:07.011Z,991
2023-11-25T04:08:22.149Z,991.1
2023-11-25T04:09:52.652Z,991.1
2023-11-25T04:11:23.170Z,991.1
2023-11-25T04:14:24.185Z,991.2
2023-11-25T04:15:54.695Z,991.3
2023-11-25T04:17:25.205Z,991.2
2023-11-25T04:18:55.734Z,991.2
2023-11-25T04:20:26.235Z,991.3
2023-11-25T04:23:11.890Z,991.3
2023-11-25T04:24:26.576Z,991.4
2023-11-25T04:25:57.093Z,991.3
2023-11-25T04:27:27.606Z,991.3
2023-11-25T04:28:58.127Z,991.4
2023-11-25T04:30:28.621Z,991.3
2023-11-25T04:33:29.652Z,991.4
2023-11-25T04:35:00.169Z,991.4
2023-11-25T04:36:30.689Z,991.4
2023-11-25T04:38:01.188Z,991.4
2023-11-25T04:39:16.326Z,991.4
2023-11-25T04:40:31.444Z,991.4
2023-11-25T04:42:01.956Z,991.4
2023-11-25T04:43:32.487Z,991.4
2023-11-25T04:45:02.993Z,991.4
2023-11-25T04:46:33.499Z,991.4
2023-11-25T04:48:04.013Z,991.4
2023-11-25T04:49:34.532Z,991.4
2023-11-25T04:51:05.045Z,991.4
2023-11-25T04:52:35.549Z,991.4
2023-11-25T04:54:06.072Z,991.4
2023-11-25T04:55:21.197Z,991.4
2023-11-25T04:56:36.053Z,991.4
2023-11-25T04:58:14.673Z,991.3
2023-11-25T04:59:45.193Z,991.3
2023-11-25T05:01:15.706Z,991.3
2023-11-25T05:02:46.205Z,991.3
2023-11-25T05:04:16.729Z,991.4
2023-11-25T05:07:17.762Z,991.3
2023-11-25T05:08:48.257Z,991.3
2023-11-25T05:10:18.781Z,991.3
2023-11-25T05:11:33.911Z,991.4
2023-11-25T05:12:49.029Z,991.3
2023-11-25T05:14:19.551Z,991.4
2023-11-25T05:15:50.060Z,991.4
2023-11-25T05:17:20.576Z,991.4
2023-11-25T05:18:51.089Z,991.4
2023-11-25T05:21:52.109Z,991.5
2023-11-25T05:23:22.700Z,991.5
2023-11-25T05:25:01.326Z,991.5
2023-11-25T05:26:31.846Z,991.5
2023-11-25T05:27:46.976Z,991.6
2023-11-25T05:29:02.109Z,991.6
2023-11-25T05:30:32.608Z,991.6
2023-11-25T05:32:03.130Z,991.6
2023-11-25T05:33:33.649Z,991.6
2023-11-25T05:35:04.146Z,991.6
2023-11-25T05:36:34.672Z,991.6
2023-11-25T05:38:05.171Z,991.6
2023-11-25T05:39:35.775Z,991.7
2023-11-25T05:41:14.404Z,991.7
2023-11-25T05:42:44.918Z,991.7
2023-11-25T05:44:00.048Z,991.7
2023-11-25T05:46:45.671Z,991.7
2023-11-25T05:48:16.199Z,991.8
2023-11-25T05:49:46.712Z,991.8
2023-11-25T05:51:17.213Z,991.9
2023-11-25T05:52:47.726Z,991.9
2023-11-25T05:54:18.248Z,991.9
2023-11-25T05:55:48.769Z,991.9
2023-11-25T05:57:19.272Z,991.9
2023-11-25T06:00:04.918Z,991.9
2023-11-25T06:01:20.046Z,991.9
2023-11-25T06:02:50.634Z,991.9
2023-11-25T06:05:59.763Z,992
2023-11-25T06:07:30.285Z,991.9
2023-11-25T06:09:00.788Z,991.9
2023-11-25T06:10:31.316Z,991.9
2023-11-25T06:12:01.825Z,992
2023-11-25T06:13:32.327Z,992
2023-11-25T06:15:02.858Z,992
2023-11-25T06:16:17.938Z,992
2023-11-25T06:17:32.996Z,992
2023-11-25T06:19:03.513Z,992.1
2023-11-25T06:20:34.016Z,992.1
2023-11-25T06:22:04.539Z,992
2023-11-25T06:23:35.059Z,992.1
2023-11-25T06:25:05.571Z,992.1
2023-11-25T06:26:36.151Z,992.1
2023-11-25T06:28:14.774Z,992.1
2023-11-25T06:29:45.293Z,992.1
2023-11-25T06:31:15.820Z,992.1
2023-11-25T06:32:30.880Z,992
2023-11-25T06:33:45.687Z,992.1
2023-11-25T06:35:24.302Z,992
2023-11-25T06:36:54.822Z,992
2023-11-25T06:38:25.323Z,992
2023-11-25T06:39:55.847Z,992.1
2023-11-25T06:41:26.359Z,992
2023-11-25T06:42:56.867Z,992.1
2023-11-25T06:44:27.378Z,992
2023-11-25T06:45:57.892Z,992.1
2023-11-25T06:47:28.413Z,992.1
2023-11-25T06:48:43.487Z,992.1
2023-11-25T06:49:58.562Z,992.1
2023-11-25T06:51:29.069Z,992.1
2023-11-25T06:52:59.596Z,992.1
2023-11-25T06:54:30.186Z,992.1
2023-11-25T06:56:08.805Z,992.1
2023-11-25T06:57:39.323Z,992.1
2023-11-25T06:59:09.836Z,992.1
2023-11-25T07:00:40.348Z,992
2023-11-25T07:02:10.853Z,992.1
2023-11-25T07:03:41.380Z,992.1
2023-11-25T07:04:56.459Z,992.1
2023-11-25T07:06:11.517Z,992.1
2023-11-25T07:07:42.038Z,992.1
2023-11-25T07:10:43.062Z,992.1
2023-11-25T07:12:13.578Z,992.2
2023-11-25T07:13:44.084Z,992.2
2023-11-25T07:15:14.591Z,992.2
2023-11-25T07:16:45.108Z,992.2
2023-11-25T07:18:15.636Z,992.2
2023-11-25T07:19:46.149Z,992.3
2023-11-25T07:23:46.800Z,992.3
2023-11-25T07:25:17.398Z,992.3
2023-11-25T07:26:56.005Z,992.3
2023-11-25T07:28:26.526Z,992.3
2023-11-25T07:29:57.044Z,992.3
2023-11-25T07:31:27.546Z,992.3
2023-11-25T07:32:58.083Z,992.3
2023-11-25T07:34:28.576Z,992.3
2023-11-25T07:35:59.092Z,992.3
2023-11-25T07:37:14.161Z,992.3
2023-11-25T07:38:29.255Z,992.3
2023-11-25T07:39:59.758Z,992.2
2023-11-25T07:41:30.262Z,992.2
2023-11-25T07:43:00.864Z,992.2
2023-11-25T07:44:39.495Z,992.1
2023-11-25T07:46:10.002Z,992.1
2023-11-25T07:47:40.517Z,992.1
2023-11-25T07:49:11.022Z,992.1
2023-11-25T07:50:41.539Z,992.1
2023-11-25T07:52:12.051Z,992.1
2023-11-25T07:53:27.126Z,992.1
2023-11-25T07:54:42.200Z,992
2023-11-25T07:56:12.717Z,992.1
2023-11-25T07:57:43.235Z,992.1
2023-11-25T07:59:13.750Z,992
2023-11-25T08:00:44.263Z,992
2023-11-25T08:02:14.767Z,992
2023-11-25T08:03:45.283Z,992
2023-11-25T08:05:15.798Z,992
2023-11-25T08:06:46.298Z,992
2023-11-25T08:08:16.835Z,992
2023-11-25T08:09:31.884Z,992
2023-11-25T08:10:46.967Z,992
2023-11-25T08:12:17.481Z,991.9
2023-11-25T08:13:48.002Z,992
2023-11-25T08:16:49.015Z,991.9
2023-11-25T08:18:19.523Z,991.8
2023-11-25T08:21:20.561Z,991.8
2023-11-25T08:22:51.069Z,991.8
2023-11-25T08:25:36.667Z,991.8
2023-11-25T08:26:51.453Z,991.8
2023-11-25T08:28:30.086Z,991.8
2023-11-25T08:30:00.602Z,991.8
2023-11-25T08:31:31.120Z,991.8
2023-11-25T08:33:01.620Z,991.9
2023-11-25T08:36:02.645Z,991.9
2023-11-25T08:37:33.169Z,991.9
2023-11-25T08:39:03.673Z,991.8
2023-11-25T08:40:34.190Z,991.8
2023-11-25T08:41:49.264Z,991.8
2023-11-25T08:44:34.839Z,991.8
2023-11-25T08:46:05.435Z,991.8
2023-11-25T08:47:44.066Z,991.9
2023-11-25T08:49:14.582Z,992
2023-11-25T08:50:45.082Z,992
2023-11-25T08:52:15.614Z,991.9
2023-11-25T08:53:46.121Z,991.9
2023-11-25T08:55:16.633Z,991.9
2023-11-25T08:56:47.148Z,991.9
2023-11-25T08:58:02.226Z,991.8
2023-11-25T08:59:17.287Z,991.7
2023-11-25T09:00:47.890Z,991.7
2023-11-25T09:02:26.499Z,991.7
2023-11-25T09:05:27.530Z,991.7
2023-11-25T09:06:58.047Z,991.6
2023-11-25T09:08:28.551Z,991.6
2023-11-25T09:09:59.084Z,991.6
2023-11-25T09:11:29.592Z,991.6
2023-11-25T09:13:00.099Z,991.5
2023-11-25T09:14:15.170Z,991.5
2023-11-25T09:15:30.237Z,991.5
2023-11-25T09:17:00.762Z,991.4
2023-11-25T09:20:01.000Z,991.4
2023-11-25T09:21:32.293Z,991.4
2023-11-25T09:23:02.804Z,991.4
2023-11-25T09:24:33.316Z,991.3
2023-11-25T09:26:03.924Z,991.4
2023-11-25T09:27:42.534Z,991.4
2023-11-25T09:29:13.057Z,991.3
2023-11-25T09:30:28.117Z,991.4
2023-11-25T09:31:43.197Z,991.4
2023-11-25T09:34:44.233Z,991.3
2023-11-25T09:36:14.748Z,991.3
2023-11-25T09:37:45.248Z,991.3
2023-11-25T09:39:15.759Z,991.2
2023-11-25T09:40:46.283Z,991.2
2023-11-25T09:43:47.308Z,991.2
2023-11-25T09:46:32.889Z,991.1
2023-11-25T09:47:47.967Z,991.2
2023-11-25T09:49:18.482Z,991.1
2023-11-25T09:50:48.985Z,991.1
2023-11-25T09:52:19.496Z,991.1
2023-11-25T09:55:20.534Z,991.2
2023-11-25T09:56:51.041Z,991.1
2023-11-25T09:58:21.562Z,991.1
2023-11-25T09:59:52.077Z,991.1
2023-11-25T10:02:37.656Z,991.2
2023-11-25T10:03:52.734Z,991.1
2023-11-25T10:05:23.249Z,991.1
2023-11-25T10:06:53.748Z,991.1
2023-11-25T10:08:24.275Z,991.1
2023-11-25T10:09:54.777Z,991.1
2023-11-25T10:11:25.291Z,991.1
2023-11-25T10:12:55.807Z,991.1
2023-11-25T10:14:26.325Z,991.1
2023-11-25T10:15:56.844Z,991
2023-11-25T10:17:27.346Z,991.1
2023-11-25T10:18:42.426Z,991
2023-11-25T10:19:57.492Z,991
2023-11-25T10:21:28.003Z,991
2023-11-25T10:22:58.523Z,991
2023-11-25T10:24:29.048Z,990.9
2023-11-25T10:25:59.636Z,990.9
2023-11-25T10:27:38.261Z,990.9
2023-11-25T10:29:08.769Z,990.9
2023-11-25T10:30:39.282Z,990.8
2023-11-25T10:32:09.793Z,990.8
2023-11-25T10:33:40.307Z,990.7
2023-11-25T10:34:55.372Z,990.7
2023-11-25T10:36:10.458Z,990.7
2023-11-25T10:37:40.969Z,990.7
2023-11-25T10:39:11.479Z,990.6
2023-11-25T10:40:42.078Z,990.6
2023-11-25T10:42:20.704Z,990.6
2023-11-25T10:43:51.198Z,990.6
2023-11-25T10:45:21.725Z,990.6
2023-11-25T10:46:52.239Z,990.6
2023-11-25T10:48:22.756Z,990.7
2023-11-25T10:49:53.263Z,990.6
2023-11-25T10:51:08.345Z,990.6
2023-11-25T10:52:23.400Z,990.6
2023-11-25T10:53:53.925Z,990.6
2023-11-25T10:55:24.439Z,990.5
2023-11-25T10:56:54.939Z,990.5
2023-11-25T10:58:25.464Z,990.5
2023-11-25T10:59:55.965Z,990.5
2023-11-25T11:01:26.476Z,990.4
2023-11-25T11:02:56.988Z,990.4
2023-11-25T11:04:27.511Z,990.4
2023-11-25T11:05:58.037Z,990.4
2023-11-25T11:07:13.097Z,990.4
2023-11-25T11:08:28.174Z,990.4
2023-11-25T11:09:58.693Z,990.4
2023-11-25T11:11:29.204Z,990.4
2023-11-25T11:12:59.717Z,990.3
2023-11-25T11:14:30.234Z,990.3
2023-11-25T11:16:00.728Z,990.3
2023-11-25T11:17:31.256Z,990.2
2023-11-25T11:19:01.758Z,990.2
2023-11-25T11:20:32.279Z,990.2
2023-11-25T11:22:02.880Z,990.2
2023-11-25T11:23:17.963Z,990.2
2023-11-25T11:24:33.016Z,990.2
2023-11-25T11:26:03.531Z,990.1
2023-11-25T11:27:34.050Z,990.1
2023-11-25T11:29:04.549Z,990.1
2023-11-25T11:30:35.073Z,990.1
2023-11-25T11:32:05.575Z,990.1
2023-11-25T11:33:36.097Z,990.1
2023-11-25T11:35:06.630Z,990.1
2023-11-25T11:36:37.122Z,990
2023-11-25T11:38:07.633Z,990
2023-11-25T11:39:22.700Z,990
2023-11-25T11:40:37.781Z,990
2023-11-25T11:42:08.301Z,989.9
2023-11-25T11:45:09.319Z,989.9
2023-11-25T11:46:39.835Z,989.9
2023-11-25T11:48:10.341Z,989.9
2023-11-25T11:49:40.859Z,989.9
2023-11-25T11:51:11.371Z,989.8
2023-11-25T11:52:41.897Z,989.9
2023-11-25T11:54:12.414Z,989.9
2023-11-25T11:56:42.553Z,989.9
2023-11-25T11:58:13.064Z,989.9
2023-11-25T11:59:43.566Z,989.8
2023-11-25T12:01:14.080Z,989.9
2023-11-25T12:02:44.595Z,989.8
2023-11-25T12:04:15.122Z,989.9
2023-11-25T12:05:45.632Z,989.8
2023-11-25T12:07:16.139Z,989.8
2023-11-25T12:08:46.651Z,989.8
2023-11-25T12:10:17.159Z,989.8
2023-11-25T12:11:32.235Z,989.8
2023-11-25T12:14:17.821Z,989.8
2023-11-25T12:15:48.429Z,989.8
2023-11-25T12:18:57.546Z,989.8
2023-11-25T12:20:28.090Z,989.8
2023-11-25T12:23:29.000Z,989.7
2023-11-25T12:26:30.132Z,989.7
2023-11-25T12:27:45.185Z,989.8
2023-11-25T12:29:00.276Z,989.7
2023-11-25T12:30:30.775Z,989.7
2023-11-25T12:32:01.293Z,989.7
2023-11-25T12:33:31.807Z,989.7
2023-11-25T12:35:02.320Z,989.7
2023-11-25T12:38:11.531Z,989.7
2023-11-25T12:39:42.046Z,989.7
2023-11-25T12:41:12.567Z,989.6
2023-11-25T12:42:43.082Z,989.6
2023-11-25T12:43:58.145Z,989.7
2023-11-25T12:45:13.217Z,989.7
2023-11-25T12:46:43.730Z,989.7
2023-11-25T12:48:14.244Z,989.7
2023-11-25T12:49:44.834Z,989.7
2023-11-25T12:51:23.458Z,989.7
2023-11-25T12:52:53.983Z,989.7
2023-11-25T12:54:24.491Z,989.7
2023-11-25T12:55:54.998Z,989.7
2023-11-25T12:57:25.514Z,989.7
2023-11-25T12:58:56.032Z,989.7
2023-11-25T13:00:11.108Z,989.7
2023-11-25T13:01:26.178Z,989.7
2023-11-25T13:02:56.689Z,989.7
2023-11-25T13:04:27.205Z,989.7
2023-11-25T13:05:57.830Z,989.7
2023-11-25T13:07:36.426Z,989.7
2023-11-25T13:09:06.935Z,989.8
2023-11-25T13:10:37.447Z,989.8
2023-11-25T13:12:07.962Z,989.8
2023-11-25T13:13:38.480Z,989.8
2023-11-25T13:16:24.058Z,989.9
2023-11-25T13:17:39.138Z,989.9
2023-11-25T13:19:09.648Z,989.9
2023-11-25T13:20:40.169Z,989.9
2023-11-25T13:22:10.679Z,989.9
2023-11-25T13:23:41.189Z,989.9
2023-11-25T13:25:11.696Z,989.8
2023-11-25T13:26:42.206Z,989.9
2023-11-25T13:28:12.729Z,989.9
2023-11-25T13:29:43.232Z,989.9
2023-11-25T13:31:13.743Z,989.9
2023-11-25T13:32:28.833Z,989.9
2023-11-25T13:33:43.906Z,989.9
2023-11-25T13:35:14.411Z,989.8
2023-11-25T13:36:45.005Z,989.8
2023-11-25T13:38:23.619Z,989.9
2023-11-25T13:39:54.139Z,989.8
2023-11-25T13:41:24.661Z,989.9
2023-11-25T13:42:55.176Z,989.8
2023-11-25T13:44:25.685Z,989.8
2023-11-25T13:45:56.190Z,989.9
2023-11-25T13:47:26.716Z,989.8
2023-11-25T13:48:41.787Z,989.8
2023-11-25T13:51:27.381Z,989.8
2023-11-25T13:52:57.887Z,989.8
2023-11-25T13:54:28.394Z,989.8
2023-11-25T13:55:58.913Z,989.8
2023-11-25T13:57:29.425Z,989.8
2023-11-25T13:58:59.927Z,989.8
2023-11-25T14:00:30.448Z,989.8
2023-11-25T14:02:00.966Z,989.8
2023-11-25T14:03:31.469Z,989.8
2023-11-25T14:04:46.536Z,989.8
2023-11-25T14:06:01.618Z,989.8
2023-11-25T14:07:32.133Z,989.9
2023-11-25T14:09:02.648Z,989.9
2023-11-25T14:10:33.163Z,989.9
2023-11-25T14:12:03.672Z,990
2023-11-25T14:13:34.187Z,990
2023-11-25T14:15:04.690Z,990.1
2023-11-25T14:16:35.211Z,990
2023-11-25T14:18:05.732Z,990
2023-11-25T14:19:36.226Z,990
2023-11-25T14:20:51.309Z,990.1
2023-11-25T14:22:06.397Z,990.1
2023-11-25T14:23:36.893Z,990
2023-11-25T14:25:07.409Z,990.1
2023-11-25T14:26:37.920Z,990.1
2023-11-25T14:28:08.429Z,990.1
2023-11-25T14:29:38.951Z,990.2
2023-11-25T14:31:09.453Z,990.2
2023-11-25T14:32:39.969Z,990.2
2023-11-25T14:34:10.492Z,990.2
2023-11-25T14:35:41.006Z,990.2
2023-11-25T14:36:55.627Z,990.2
2023-11-25T14:39:41.223Z,990.2
2023-11-25T14:41:11.731Z,990.1
2023-11-25T14:44:12.773Z,990.1
2023-11-25T14:45:43.279Z,990.1
2023-11-25T14:47:13.784Z,990.1
2023-11-25T14:48:44.303Z,990.1
2023-11-25T14:50:14.816Z,990.2
2023-11-25T14:51:45.339Z,990.2
2023-11-25T14:53:00.400Z,990.1
2023-11-25T14:54:15.470Z,990.1
2023-11-25T14:55:46.004Z,990.2
2023-11-25T14:57:16.497Z,990.1
2023-11-25T14:58:47.000Z,990.2
2023-11-25T15:00:17.528Z,990.2
2023-11-25T15:01:48.046Z,990.2
2023-11-25T15:03:18.554Z,990.2
2023-11-25T15:04:49.063Z,990.2
2023-11-25T15:06:19.585Z,990.2
2023-11-25T15:07:50.092Z,990.2
2023-11-25T15:09:05.172Z,990.3
2023-11-25T15:10:20.233Z,990.3
2023-11-25T15:11:50.750Z,990.3
2023-11-25T15:13:21.258Z,990.3
2023-11-25T15:14:51.773Z,990.3
2023-11-25T15:17:52.802Z,990.3
2023-11-25T15:19:23.318Z,990.3
2023-11-25T15:20:53.838Z,990.3
2023-11-25T15:22:24.351Z,990.3
2023-11-25T15:23:54.857Z,990.4
2023-11-25T15:25:09.931Z,990.4
2023-11-25T15:26:25.002Z,990.4
2023-11-25T15:27:55.520Z,990.4
2023-11-25T15:29:26.044Z,990.4
2023-11-25T15:32:27.057Z,990.4
2023-11-25T15:33:57.579Z,990.4
2023-11-25T15:36:58.595Z,990.4
2023-11-25T15:38:29.103Z,990.4
2023-11-25T15:41:14.831Z,990.3
2023-11-25T15:42:29.685Z,990.3
2023-11-25T15:44:08.312Z,990.3
2023-11-25T15:45:38.819Z,990.3
2023-11-25T15:47:09.336Z,990.3
2023-11-25T15:48:39.853Z,990.3
2023-11-25T15:51:40.875Z,990.3
2023-11-25T15:53:11.389Z,990.3
2023-11-25T15:56:12.423Z,990.3
2023-11-25T15:57:27.542Z,990.4
2023-11-25T15:58:42.667Z,990.4
2023-11-25T16:00:13.262Z,990.4
2023-11-25T16:01:51.890Z,990.4
2023-11-25T16:03:22.404Z,990.4
2023-11-25T16:06:23.434Z,990.4
2023-11-25T16:07:53.938Z,990.4
2023-11-25T16:09:24.454Z,990.4
2023-11-25T16:10:54.974Z,990.4
2023-11-25T16:12:25.478Z,990.4
2023-11-25T16:13:40.606Z,990.4
2023-11-25T16:14:55.744Z,990.4
2023-11-25T16:16:26.247Z,990.4
2023-11-25T16:17:56.768Z,990.4
2023-11-25T16:21:05.977Z,990.5
2023-11-25T16:22:36.492Z,990.4
2023-11-25T16:25:45.704Z,990.5
2023-11-25T16:27:16.223Z,990.6
2023-11-25T16:28:45.839Z,990.6
2023-11-25T16:30:00.964Z,990.7
2023-11-25T16:31:31.486Z,990.7
2023-11-25T16:33:01.991Z,990.7
2023-11-25T16:36:03.029Z,990.7
2023-11-25T16:37:33.535Z,990.8
2023-11-25T16:39:04.041Z,990.8
2023-11-25T16:40:34.557Z,990.8
2023-11-25T16:42:05.076Z,990.9
2023-11-25T16:43:35.583Z,990.9
2023-11-25T16:45:06.097Z,991
2023-11-25T16:50:37.376Z,991.1
2023-11-25T16:52:07.893Z,991.1
2023-11-25T16:53:38.407Z,991.2
2023-11-25T16:55:08.913Z,991.2
2023-11-25T16:56:39.439Z,991.2
2023-11-25T16:58:09.939Z,991.3
2023-11-25T16:59:40.467Z,991.3
2023-11-25T17:01:10.980Z,991.3
2023-11-25T17:02:26.093Z,991.3
2023-11-25T17:03:41.220Z,991.3
2023-11-25T17:05:11.752Z,991.3
2023-11-25T17:06:42.246Z,991.4
2023-11-25T17:08:12.777Z,991.4
2023-11-25T17:09:43.278Z,991.5
2023-11-25T17:11:13.796Z,991.5
2023-11-25T17:12:44.312Z,991.5
2023-11-25T17:14:14.823Z,991.6
2023-11-25T17:15:45.334Z,991.5
2023-11-25T17:17:15.852Z,991.5
2023-11-25T17:18:30.978Z,991.6
2023-11-25T17:19:46.107Z,991.6
2023-11-25T17:21:16.612Z,991.6
2023-11-25T17:22:47.201Z,991.6
2023-11-25T17:24:25.832Z,991.7
2023-11-25T17:25:56.347Z,991.7
2023-11-25T17:27:26.857Z,991.7
2023-11-25T17:28:57.368Z,991.7
2023-11-25T17:30:27.876Z,991.7
2023-11-25T17:31:58.392Z,991.7
2023-11-25T17:33:28.911Z,991.7
2023-11-25T17:34:44.030Z,991.7
2023-11-25T17:35:59.156Z,991.8
2023-11-25T17:39:08.371Z,991.8
2023-11-25T17:40:38.886Z,991.8
2023-11-25T17:42:09.405Z,991.8
2023-11-25T17:43:39.924Z,991.9
2023-11-25T17:45:10.426Z,991.9
2023-11-25T17:48:11.455Z,991.9
2023-11-25T17:49:41.963Z,991.9
2023-11-25T17:50:57.095Z,992
2023-11-25T17:52:12.230Z,992
2023-11-25T17:53:42.735Z,992.1
2023-11-25T17:55:13.251Z,992.1
2023-11-25T17:56:43.758Z,992.1
2023-11-25T17:58:14.285Z,992.1
2023-11-25T17:59:44.785Z,992.2
2023-11-25T18:01:15.315Z,992.2
2023-11-25T18:02:45.821Z,992.3
2023-11-25T18:04:16.344Z,992.3
2023-11-25T18:07:01.982Z,992.3
2023-11-25T18:08:17.099Z,992.4
2023-11-25T18:09:47.608Z,992.4
2023-11-25T18:14:19.160Z,992.5
2023-11-25T18:17:28.370Z,992.5
2023-11-25T18:18:58.881Z,992.5
2023-11-25T18:20:29.471Z,992.5
2023-11-25T18:22:07.132Z,992.5
2023-11-25T18:23:22.247Z,992.5
2023-11-25T18:24:52.755Z,992.5
2023-11-25T18:26:23.275Z,992.5
2023-11-25T18:27:53.781Z,992.6
2023-11-25T18:29:24.305Z,992.6
2023-11-25T18:30:54.815Z,992.7
2023-11-25T18:32:25.335Z,992.7
2023-11-25T18:33:55.842Z,992.7
2023-11-25T18:35:26.432Z,992.7
2023-11-25T18:37:05.064Z,992.7
2023-11-25T18:38:20.188Z,992.8
2023-11-25T18:39:35.309Z,992.7
2023-11-25T18:41:05.815Z,992.8
2023-11-25T18:42:36.338Z,992.8
2023-11-25T18:44:06.844Z,992.8
2023-11-25T18:45:37.369Z,992.8
2023-11-25T18:47:07.871Z,992.8
2023-11-25T18:48:38.402Z,992.8
2023-11-25T18:50:08.990Z,992.9
2023-11-25T18:51:47.603Z,992.9
2023-11-25T18:53:18.125Z,992.9
2023-11-25T18:54:33.241Z,992.9
2023-11-25T18:55:48.373Z,992.9
2023-11-25T18:57:18.894Z,992.9
2023-11-25T18:58:49.396Z,992.9
2023-11-25T19:00:19.904Z,992.9
2023-11-25T19:01:50.421Z,992.8
2023-11-25T19:03:20.949Z,992.8
2023-11-25T19:06:21.964Z,992.9
2023-11-25T19:07:52.484Z,992.9
2023-11-25T19:09:23.004Z,992.9
2023-11-25T19:10:38.113Z,992.9
2023-11-25T19:11:53.245Z,993
2023-11-25T19:13:23.768Z,993
2023-11-25T19:14:54.265Z,993
2023-11-25T19:16:24.789Z,993
2023-11-25T19:17:55.305Z,993.1
2023-11-25T19:19:25.826Z,993.1
2023-11-25T19:20:56.330Z,993.1
2023-11-25T19:22:26.839Z,993.1
2023-11-25T19:25:27.860Z,993.2
2023-11-25T19:26:42.984Z,993.2
2023-11-25T19:27:58.112Z,993.2
2023-11-25T19:29:28.632Z,993.2
2023-11-25T19:30:59.143Z,993.2
2023-11-25T19:34:00.178Z,993.3
2023-11-25T19:35:30.695Z,993.3
2023-11-25T19:37:01.199Z,993.3
2023-11-25T19:38:31.716Z,993.3
2023-11-25T19:40:02.222Z,993.3
2023-11-25T19:41:32.732Z,993.3
2023-11-25T19:42:47.868Z,993.4
2023-11-25T19:44:03.000Z,993.4
2023-11-25T19:45:33.514Z,993.4
2023-11-25T19:47:04.028Z,993.4
2023-11-25T19:50:05.054Z,993.4
2023-11-25T19:51:35.568Z,993.5
2023-11-25T19:53:06.150Z,993.4
2023-11-25T19:54:44.779Z,993.5
2023-11-25T19:56:15.280Z,993.7
2023-11-25T19:57:45.807Z,993.7
2023-11-25T20:00:16.059Z,993.7
2023-11-25T20:01:46.567Z,993.7
2023-11-25T20:04:47.591Z,993.8
2023-11-25T20:06:18.120Z,993.8
2023-11-25T20:07:48.634Z,993.8
2023-11-25T20:09:19.137Z,993.9
2023-11-25T20:10:49.654Z,993.9
2023-11-25T20:12:20.161Z,994
2023-11-25T20:13:50.753Z,994
2023-11-25T20:15:05.445Z,994
2023-11-25T20:16:20.578Z,994
2023-11-25T20:17:51.100Z,994
2023-11-25T20:19:21.602Z,994.1
2023-11-25T20:20:52.116Z,994.1
2023-11-25T20:22:22.633Z,994.1
2023-11-25T20:23:53.150Z,994.2
2023-11-25T20:25:23.660Z,994.2
2023-11-25T20:26:54.179Z,994.2
2023-11-25T20:28:24.771Z,994.2
2023-11-25T20:30:03.390Z,994.3
2023-11-25T20:31:18.085Z,994.3
2023-11-25T20:32:33.199Z,994.3
2023-11-25T20:34:03.725Z,994.3
2023-11-25T20:35:34.226Z,994.3
2023-11-25T20:38:35.257Z,994.4
2023-11-25T20:40:05.772Z,994.4
2023-11-25T20:44:37.319Z,994.5
2023-11-25T20:46:07.831Z,994.5
2023-11-25T20:47:22.683Z,994.5
2023-11-25T20:48:37.807Z,994.5
2023-11-25T20:50:08.338Z,994.5
2023-11-25T20:51:38.845Z,994.5
2023-11-25T20:53:09.359Z,994.5
2023-11-25T20:54:39.869Z,994.6
2023-11-25T20:56:10.380Z,994.6
2023-11-25T20:57:40.888Z,994.5
2023-11-25T20:59:11.404Z,994.5
2023-11-25T21:00:41.912Z,994.5
2023-11-25T21:02:12.524Z,994.5
2023-11-25T21:03:49.664Z,994.4
2023-11-25T21:05:04.781Z,994.4
2023-11-25T21:06:35.298Z,994.4
2023-11-25T21:08:05.825Z,994.5
2023-11-25T21:09:36.332Z,994.5
2023-11-25T21:11:06.853Z,994.5
2023-11-25T21:12:37.349Z,994.5
2023-11-25T21:14:07.878Z,994.4
2023-11-25T21:15:38.378Z,994.4
2023-11-25T21:17:08.894Z,994.3